createdAt,value
2018-03-04T00:02:26.671Z,8.57
2018-03-04T00:04:55.636Z,8.57
2018-03-04T00:07:24.631Z,8.33
2018-03-04T00:09:53.668Z,8.97
2018-03-04T00:13:51.711Z,8.27
2018-03-04T00:16:20.670Z,8.23
2018-03-04T00:18:49.671Z,8.67
2018-03-04T00:21:18.692Z,8.33
2018-03-04T00:23:47.723Z,8.70
2018-03-04T00:26:17.158Z,8.30
2018-03-04T00:28:46.669Z,8.17
2018-03-04T00:31:15.717Z,8.27
2018-03-04T00:33:44.683Z,7.80
2018-03-04T00:36:13.674Z,8.30
2018-03-04T00:38:42.700Z,8.27
2018-03-04T00:41:11.687Z,8.37
2018-03-04T00:43:40.723Z,8.53
2018-03-04T00:46:09.677Z,8.53
2018-03-04T00:48:38.715Z,8.43
2018-03-04T00:51:07.727Z,7.83
2018-03-04T00:53:36.693Z,8.07
2018-03-04T00:56:05.711Z,7.57
2018-03-04T00:58:34.684Z,7.73
2018-03-04T01:01:03.701Z,7.47
2018-03-04T01:03:32.677Z,7.60
2018-03-04T01:06:01.665Z,7.80
2018-03-04T01:08:30.642Z,7.83
2018-03-04T01:10:59.701Z,8.00
2018-03-04T01:13:28.699Z,8.13
2018-03-04T01:15:57.732Z,8.63
2018-03-04T01:18:26.639Z,8.00
2018-03-04T01:20:55.704Z,7.77
2018-03-04T01:23:24.651Z,7.17
2018-03-04T01:28:04.640Z,8.10
2018-03-04T01:30:33.690Z,7.57
2018-03-04T01:35:28.743Z,7.97
2018-03-04T01:37:57.726Z,7.30
2018-03-04T01:40:26.773Z,7.00
2018-03-04T01:44:38.637Z,7.60
2018-03-04T01:47:07.675Z,7.37
2018-03-04T01:49:36.673Z,7.13
2018-03-04T01:52:05.639Z,7.47
2018-03-04T01:54:34.627Z,7.67
2018-03-04T01:57:03.639Z,6.70
2018-03-04T02:00:30.698Z,6.60
2018-03-04T02:02:59.674Z,6.90
2018-03-04T02:05:28.664Z,6.90
2018-03-04T02:07:57.687Z,7.33
2018-03-04T02:10:26.729Z,7.07
2018-03-04T02:15:08.689Z,6.67
2018-03-04T02:17:37.667Z,6.70
2018-03-04T02:20:06.725Z,6.13
2018-03-04T02:22:35.691Z,5.83
2018-03-04T02:25:04.705Z,6.50
2018-03-04T02:27:33.790Z,6.13
2018-03-04T02:30:02.778Z,6.17
2018-03-04T02:32:31.743Z,6.40
2018-03-04T02:35:00.773Z,6.40
2018-03-04T02:39:06.837Z,7.27
2018-03-04T02:41:35.743Z,6.80
2018-03-04T02:44:04.751Z,6.23
2018-03-04T02:46:34.448Z,6.13
2018-03-04T02:49:03.540Z,6.90
2018-03-04T02:57:46.501Z,5.73
2018-03-04T03:01:48.525Z,6.13
2018-03-04T03:04:17.649Z,5.63
2018-03-04T03:06:46.655Z,5.73
2018-03-04T03:09:15.763Z,5.47
2018-03-04T03:11:45.282Z,5.97
2018-03-04T03:14:14.289Z,6.10
2018-03-04T03:16:42.748Z,5.47
2018-03-04T03:19:42.593Z,5.57
2018-03-04T03:26:38.645Z,5.50
2018-03-04T03:29:07.681Z,5.17
2018-03-04T03:31:36.647Z,5.70
2018-03-04T03:34:05.621Z,5.50
2018-03-04T03:36:34.627Z,5.43
2018-03-04T03:39:03.631Z,5.50
2018-03-04T03:41:32.697Z,5.77
2018-03-04T03:44:01.693Z,5.87
2018-03-04T03:46:30.652Z,5.63
2018-03-04T03:48:59.661Z,5.47
2018-03-04T03:51:28.655Z,5.57
2018-03-04T03:53:57.675Z,5.10
2018-03-04T03:56:26.639Z,5.40
2018-03-04T03:58:55.647Z,5.23
2018-03-04T04:01:24.628Z,5.30
2018-03-04T04:04:24.032Z,5.40
2018-03-04T04:06:52.743Z,5.37
2018-03-04T04:09:21.645Z,5.10
2018-03-04T04:11:50.743Z,5.17
2018-03-04T04:14:19.777Z,5.67
2018-03-04T04:16:48.742Z,5.57
2018-03-04T04:19:17.662Z,5.57
2018-03-04T04:22:24.687Z,5.63
2018-03-04T04:24:53.626Z,5.20
2018-03-04T04:27:22.654Z,4.80
2018-03-04T04:29:51.721Z,7.27
2018-03-04T04:32:20.763Z,7.73
2018-03-04T04:34:49.744Z,8.43
2018-03-04T04:37:18.895Z,8.60
2018-03-04T04:39:48.172Z,7.63
2018-03-04T04:44:45.876Z,7.40
2018-03-04T04:47:15.567Z,6.67
2018-03-04T04:49:44.776Z,6.30
2018-03-04T04:52:13.886Z,6.40
2018-03-04T04:57:11.679Z,5.47
2018-03-04T04:59:40.804Z,5.90
2018-03-04T05:02:09.721Z,5.80
2018-03-04T05:04:38.756Z,5.10
2018-03-04T05:07:54.767Z,5.60
2018-03-04T05:10:23.796Z,5.27
2018-03-04T05:12:52.776Z,5.30
2018-03-04T05:16:50.521Z,5.50
2018-03-04T05:19:19.679Z,5.57
2018-03-04T05:21:48.734Z,6.20
2018-03-04T05:24:17.680Z,5.30
2018-03-04T05:26:46.775Z,5.10
2018-03-04T05:29:15.676Z,6.10
2018-03-04T05:31:44.683Z,5.80
2018-03-04T05:34:13.735Z,5.60
2018-03-04T05:36:42.679Z,6.10
2018-03-04T05:41:00.730Z,5.53
2018-03-04T05:43:29.720Z,5.47
2018-03-04T05:45:58.687Z,5.40
2018-03-04T05:48:27.705Z,5.77
2018-03-04T05:50:56.688Z,5.93
2018-03-04T05:53:25.738Z,5.50
2018-03-04T05:57:48.666Z,5.53
2018-03-04T06:00:17.655Z,5.93
2018-03-04T06:02:46.674Z,5.50
2018-03-04T06:05:15.743Z,5.67
2018-03-04T06:11:22.438Z,5.83
2018-03-04T06:13:51.443Z,5.57
2018-03-04T06:16:20.437Z,6.30
2018-03-04T06:18:49.647Z,6.13
2018-03-04T06:21:18.652Z,5.73
2018-03-04T06:23:47.863Z,6.17
2018-03-04T06:26:16.646Z,5.73
2018-03-04T06:28:45.685Z,5.60
2018-03-04T06:31:14.632Z,5.87
2018-03-04T06:33:43.707Z,5.90
2018-03-04T06:36:12.703Z,6.27
2018-03-04T06:38:41.812Z,6.23
2018-03-04T06:41:10.666Z,5.87
2018-03-04T06:43:39.616Z,5.77
2018-03-04T06:46:08.664Z,6.47
2018-03-04T06:48:37.710Z,6.00
2018-03-04T06:51:06.643Z,6.37
2018-03-04T06:53:35.641Z,6.13
2018-03-04T06:58:17.774Z,6.37
2018-03-04T07:00:46.731Z,5.73
2018-03-04T07:03:15.629Z,5.83
2018-03-04T07:05:44.687Z,5.50
2018-03-04T07:08:13.637Z,6.70
2018-03-04T07:10:42.619Z,7.40
2018-03-04T07:15:29.662Z,10.53
2018-03-04T07:17:58.649Z,11.90
2018-03-04T07:20:27.679Z,10.73
2018-03-04T07:22:56.752Z,9.57
2018-03-04T07:25:25.635Z,8.80
2018-03-04T07:27:54.678Z,8.00
2018-03-04T07:30:23.616Z,8.53
2018-03-04T07:32:52.619Z,7.93
2018-03-04T07:35:21.611Z,7.80
2018-03-04T07:37:50.649Z,8.03
2018-03-04T07:40:19.694Z,8.30
2018-03-04T07:42:48.631Z,7.90
2018-03-04T07:45:17.565Z,8.03
2018-03-04T07:49:33.607Z,7.23
2018-03-04T07:57:21.689Z,7.00
2018-03-04T08:00:25.413Z,6.87
2018-03-04T08:02:54.418Z,7.00
2018-03-04T08:05:23.641Z,6.97
2018-03-04T08:07:52.666Z,6.70
2018-03-04T08:10:21.629Z,7.87
2018-03-04T08:12:50.651Z,15.00
2018-03-04T08:17:39.419Z,15.80
2018-03-04T08:20:08.420Z,13.97
2018-03-04T08:22:37.639Z,12.33
2018-03-04T08:25:18.629Z,10.10
2018-03-04T08:27:59.424Z,9.60
2018-03-04T08:30:28.590Z,9.57
2018-03-04T08:32:57.623Z,8.73
2018-03-04T08:35:26.736Z,9.40
2018-03-04T08:37:55.635Z,9.30
2018-03-04T08:41:35.640Z,8.40
2018-03-04T08:50:01.624Z,8.63
2018-03-04T08:52:30.623Z,8.27
2018-03-04T08:54:59.681Z,8.10
2018-03-04T08:57:28.646Z,8.03
2018-03-04T08:59:57.693Z,8.20
2018-03-04T09:02:26.641Z,7.87
2018-03-04T09:04:55.627Z,8.50
2018-03-04T09:08:18.655Z,8.17
2018-03-04T09:10:47.660Z,8.33
2018-03-04T09:13:16.624Z,7.63
2018-03-04T09:15:45.640Z,7.70
2018-03-04T09:18:14.628Z,8.03
2018-03-04T09:20:43.624Z,8.70
2018-03-04T09:25:29.424Z,10.00
2018-03-04T09:27:58.425Z,10.00
2018-03-04T09:30:27.428Z,8.97
2018-03-04T09:32:56.427Z,8.93
2018-03-04T09:35:25.698Z,8.20
2018-03-04T09:37:54.628Z,8.20
2018-03-04T09:41:14.429Z,8.50
2018-03-04T09:43:43.405Z,8.30
2018-03-04T09:46:12.581Z,7.67
2018-03-04T09:48:41.627Z,8.40
2018-03-04T09:51:10.608Z,8.90
2018-03-04T09:53:39.607Z,8.40
2018-03-04T09:56:08.660Z,7.40
2018-03-04T10:01:20.728Z,7.10
2018-03-04T10:03:49.669Z,7.80
2018-03-04T10:06:18.679Z,7.40
2018-03-04T10:08:47.657Z,7.07
2018-03-04T10:11:16.617Z,7.60
2018-03-04T10:13:45.632Z,6.90
2018-03-04T10:18:34.611Z,7.43
2018-03-04T10:21:03.649Z,7.07
2018-03-04T10:23:32.684Z,7.40
2018-03-04T10:26:01.635Z,6.90
2018-03-04T10:28:30.691Z,7.00
2018-03-04T10:32:12.725Z,6.43
2018-03-04T10:34:41.655Z,6.67
2018-03-04T10:37:10.740Z,6.60
2018-03-04T10:39:39.708Z,7.13
2018-03-04T10:42:08.633Z,7.03
2018-03-04T10:44:37.705Z,6.77
2018-03-04T10:47:06.685Z,7.27
2018-03-04T10:49:35.651Z,7.03
2018-03-04T10:52:04.735Z,6.53
2018-03-04T10:54:33.615Z,7.60
2018-03-04T10:57:02.670Z,7.90
2018-03-04T10:59:31.671Z,8.70
2018-03-04T11:02:04.835Z,8.50
2018-03-04T11:07:57.655Z,11.00
2018-03-04T11:10:26.710Z,11.80
2018-03-04T11:13:42.667Z,11.10
2018-03-04T11:16:11.635Z,10.73
2018-03-04T11:18:40.655Z,10.17
2018-03-04T11:21:11.516Z,9.93
2018-03-04T11:23:40.708Z,9.70
2018-03-04T11:26:10.470Z,9.87
2018-03-04T11:28:39.690Z,9.47
2018-03-04T11:31:08.729Z,9.00
2018-03-04T11:33:37.691Z,8.50
2018-03-04T11:38:54.676Z,9.80
2018-03-04T11:41:23.719Z,11.07
2018-03-04T11:43:52.663Z,10.93
2018-03-04T11:46:21.723Z,10.23
2018-03-04T11:48:50.675Z,10.40
2018-03-04T11:51:19.697Z,9.80
2018-03-04T11:53:48.663Z,9.77
2018-03-04T11:57:35.576Z,8.70
2018-03-04T12:00:04.659Z,9.70
2018-03-04T12:02:33.636Z,8.83
2018-03-04T12:05:02.864Z,9.10
2018-03-04T12:09:05.755Z,8.47
2018-03-04T12:11:34.693Z,7.57
2018-03-04T12:14:03.680Z,7.43
2018-03-04T12:16:32.644Z,7.30
2018-03-04T12:19:01.679Z,6.90
2018-03-04T12:21:30.739Z,7.60
2018-03-04T12:23:59.711Z,7.57
2018-03-04T12:26:28.681Z,8.37
2018-03-04T12:28:57.711Z,7.53
2018-03-04T12:31:26.699Z,7.43
2018-03-04T12:33:55.663Z,6.90
2018-03-04T12:37:10.684Z,7.27
2018-03-04T12:41:44.683Z,6.63
2018-03-04T12:44:13.694Z,6.70
2018-03-04T12:46:42.732Z,6.57
2018-03-04T12:49:11.696Z,6.40
2018-03-04T12:51:40.966Z,6.53
2018-03-04T12:56:38.640Z,6.47
2018-03-04T12:59:07.755Z,7.00
2018-03-04T13:01:36.705Z,6.30
2018-03-04T13:11:14.692Z,9.23
2018-03-04T13:13:43.719Z,8.97
2018-03-04T13:16:12.732Z,7.57
2018-03-04T13:18:41.768Z,7.70
2018-03-04T13:21:10.749Z,7.57
2018-03-04T13:23:39.696Z,8.00
2018-03-04T13:26:08.698Z,8.20
2018-03-04T13:29:24.476Z,8.07
2018-03-04T13:31:54.428Z,7.53
2018-03-04T13:34:23.728Z,7.43
2018-03-04T13:36:52.654Z,7.60
2018-03-04T13:39:21.645Z,7.63
2018-03-04T13:41:50.710Z,6.80
2018-03-04T13:44:19.729Z,6.33
2018-03-04T13:46:48.687Z,6.40
2018-03-04T13:49:17.676Z,6.93
2018-03-04T13:51:46.653Z,6.50
2018-03-04T13:54:15.705Z,6.70
2018-03-04T13:58:30.695Z,6.93
2018-03-04T14:00:59.705Z,6.63
2018-03-04T14:03:28.666Z,6.10
2018-03-04T14:05:57.651Z,5.93
2018-03-04T14:08:26.657Z,6.40
2018-03-04T14:13:16.752Z,5.93
2018-03-04T14:15:45.649Z,5.60
2018-03-04T14:18:14.651Z,5.67
2018-03-04T14:20:43.722Z,5.20
2018-03-04T14:23:12.691Z,5.50
2018-03-04T14:25:41.721Z,6.20
2018-03-04T14:28:10.623Z,6.33
2018-03-04T14:30:39.679Z,5.90
2018-03-04T14:33:08.675Z,6.03
2018-03-04T14:35:37.693Z,7.87
2018-03-04T14:38:06.620Z,9.20
2018-03-04T14:40:35.623Z,9.90
2018-03-04T14:43:04.879Z,9.60
2018-03-04T14:45:33.660Z,9.07
2018-03-04T14:48:02.595Z,7.90
2018-03-04T14:50:31.655Z,7.17
2018-03-04T14:53:00.637Z,7.73
2018-03-04T14:55:29.668Z,8.00
2018-03-04T14:57:58.624Z,7.50
2018-03-04T15:00:27.643Z,6.53
2018-03-04T15:02:56.650Z,7.17
2018-03-04T15:05:25.634Z,6.63
2018-03-04T15:07:54.657Z,7.10
2018-03-04T15:10:23.643Z,6.40
2018-03-04T15:12:52.708Z,6.47
2018-03-04T15:15:21.635Z,6.60
2018-03-04T15:17:50.657Z,6.50
2018-03-04T15:20:19.632Z,6.20
2018-03-04T15:22:48.644Z,5.77
2018-03-04T15:25:17.628Z,6.00
2018-03-04T15:27:46.639Z,5.67
2018-03-04T15:30:15.760Z,5.60
2018-03-04T15:32:44.643Z,6.10
2018-03-04T15:35:13.655Z,5.97
2018-03-04T15:37:42.663Z,6.43
2018-03-04T15:40:11.727Z,5.90
2018-03-04T15:42:40.683Z,5.80
2018-03-04T15:47:27.518Z,5.50
2018-03-04T15:49:56.608Z,5.10
2018-03-04T15:52:25.703Z,6.03
2018-03-04T15:54:54.651Z,5.77
2018-03-04T15:57:23.685Z,5.70
2018-03-04T15:59:52.649Z,5.43
2018-03-04T16:03:41.727Z,5.23
2018-03-04T16:10:59.692Z,5.40
2018-03-04T16:13:28.697Z,7.00
2018-03-04T16:15:57.741Z,9.90
2018-03-04T16:18:27.580Z,10.50
2018-03-04T16:23:10.549Z,13.03
2018-03-04T16:25:39.920Z,14.27
2018-03-04T16:30:37.707Z,15.83
2018-03-04T16:33:06.764Z,16.97
2018-03-04T16:35:35.890Z,15.20
2018-03-04T16:38:04.734Z,15.30
2018-03-04T16:40:33.771Z,14.87
2018-03-04T16:43:02.775Z,15.63
2018-03-04T16:45:31.758Z,15.40
2018-03-04T16:48:01.333Z,15.03
2018-03-04T16:50:30.519Z,15.00
2018-03-04T16:54:32.867Z,13.77
2018-03-04T16:57:02.340Z,13.83
2018-03-04T17:01:30.760Z,12.53
2018-03-04T17:03:59.711Z,12.23
2018-03-04T17:06:29.345Z,12.13
2018-03-04T17:08:58.708Z,12.30
2018-03-04T17:11:27.701Z,12.43
2018-03-04T17:13:56.760Z,11.97
2018-03-04T17:16:25.764Z,12.00
2018-03-04T17:18:55.296Z,11.77
2018-03-04T17:21:24.656Z,11.67
2018-03-04T17:23:53.720Z,11.30
2018-03-04T17:26:22.807Z,11.23
2018-03-04T17:28:51.883Z,10.80
2018-03-04T17:31:21.318Z,10.57
2018-03-04T17:33:50.721Z,11.43
2018-03-04T17:36:20.167Z,10.70
2018-03-04T17:38:49.700Z,11.03
2018-03-04T17:42:20.715Z,10.63
2018-03-04T17:44:49.713Z,10.20
2018-03-04T17:48:36.746Z,10.70
2018-03-04T17:51:06.699Z,11.50
2018-03-04T17:53:36.204Z,13.37
2018-03-04T17:57:27.707Z,14.43
2018-03-04T17:59:57.729Z,13.23
2018-03-04T18:02:26.689Z,12.50
2018-03-04T18:04:55.651Z,12.03
2018-03-04T18:07:24.681Z,12.83
2018-03-04T18:09:53.695Z,11.93
2018-03-04T18:12:22.744Z,11.37
2018-03-04T18:14:51.771Z,11.10
2018-03-04T18:17:20.690Z,12.40
2018-03-04T18:19:49.667Z,11.77
2018-03-04T18:22:18.758Z,12.10
2018-03-04T18:24:47.648Z,11.90
2018-03-04T18:27:16.625Z,11.23
2018-03-04T18:29:46.200Z,10.73
2018-03-04T18:32:15.623Z,10.73
2018-03-04T18:34:44.615Z,10.93
2018-03-04T18:37:13.626Z,9.63
2018-03-04T18:39:42.747Z,9.73
2018-03-04T18:42:11.855Z,9.87
2018-03-04T18:44:40.690Z,10.93
2018-03-04T18:47:10.050Z,10.47
2018-03-04T18:49:39.624Z,9.43
2018-03-04T18:52:08.623Z,9.53
2018-03-04T18:54:37.623Z,10.07
2018-03-04T18:57:06.602Z,10.00
2018-03-04T19:01:44.657Z,9.70
2018-03-04T19:04:13.660Z,9.17
2018-03-04T19:06:42.684Z,9.70
2018-03-04T19:09:11.660Z,9.80
2018-03-04T19:11:40.578Z,9.17
2018-03-04T19:14:09.633Z,9.00
2018-03-04T19:16:39.047Z,9.33
2018-03-04T19:19:08.660Z,9.50
2018-03-04T19:21:37.687Z,9.87
2018-03-04T19:24:06.673Z,9.10
2018-03-04T19:26:35.660Z,9.50
2018-03-04T19:29:04.757Z,9.00
2018-03-04T19:31:33.707Z,9.63
2018-03-04T19:34:02.667Z,10.17
2018-03-04T19:36:31.688Z,10.47
2018-03-04T19:39:00.764Z,10.33
2018-03-04T19:41:29.779Z,10.27
2018-03-04T19:43:58.661Z,10.20
2018-03-04T19:46:27.678Z,9.87
2018-03-04T19:48:56.631Z,9.77
2018-03-04T19:51:25.661Z,10.10
2018-03-04T19:53:54.641Z,9.97
2018-03-04T19:56:23.623Z,9.33
2018-03-04T19:58:52.679Z,8.73
2018-03-04T20:01:21.618Z,9.50
2018-03-04T20:03:50.697Z,9.40
2018-03-04T20:06:20.151Z,9.37
2018-03-04T20:08:49.434Z,9.57
2018-03-04T20:13:12.647Z,9.27
2018-03-04T20:15:41.651Z,8.80
2018-03-04T20:18:10.648Z,8.37
2018-03-04T20:20:39.671Z,8.63
2018-03-04T20:23:08.775Z,9.00
2018-03-04T20:25:37.687Z,8.53
2018-03-04T20:28:06.675Z,8.27
2018-03-04T20:30:35.687Z,10.33
2018-03-04T20:33:04.755Z,10.80
2018-03-04T20:35:33.857Z,11.50
2018-03-04T20:38:02.699Z,12.27
2018-03-04T20:40:31.691Z,12.03
2018-03-04T20:43:01.178Z,12.40
2018-03-04T20:45:30.160Z,11.30
2018-03-04T20:49:57.517Z,10.53
2018-03-04T20:52:26.709Z,10.17
2018-03-04T20:54:55.704Z,9.57
2018-03-04T20:57:24.687Z,8.60
2018-03-04T20:59:53.682Z,9.17
2018-03-04T21:02:22.752Z,9.23
2018-03-04T21:04:51.740Z,8.17
2018-03-04T21:10:57.780Z,9.23
2018-03-04T21:13:26.699Z,8.63
2018-03-04T21:15:55.719Z,8.93
2018-03-04T21:18:25.573Z,8.27
2018-03-04T21:20:54.661Z,8.50
2018-03-04T21:23:23.677Z,8.10
2018-03-04T21:25:52.635Z,7.60
2018-03-04T21:28:21.636Z,7.70
2018-03-04T21:30:50.671Z,8.33
2018-03-04T21:33:19.632Z,7.73
2018-03-04T21:35:48.637Z,7.77
2018-03-04T21:38:17.635Z,9.27
2018-03-04T21:45:17.656Z,10.40
2018-03-04T21:47:46.647Z,10.73
2018-03-04T21:50:15.661Z,11.07
2018-03-04T21:52:44.692Z,11.00
2018-03-04T21:55:13.712Z,10.37
2018-03-04T21:59:29.670Z,9.53
2018-03-04T22:01:58.640Z,9.63
2018-03-04T22:04:27.651Z,9.67
2018-03-04T22:06:56.687Z,9.37
2018-03-04T22:09:25.673Z,9.30
2018-03-04T22:11:54.676Z,9.50
2018-03-04T22:14:23.429Z,8.83
2018-03-04T22:16:52.639Z,9.47
2018-03-04T22:19:21.657Z,8.73
2018-03-04T22:21:50.655Z,8.70
2018-03-04T22:26:32.676Z,8.80
2018-03-04T22:29:01.646Z,8.33
2018-03-04T22:31:30.676Z,8.87
2018-03-04T22:33:59.644Z,9.10
2018-03-04T22:36:28.650Z,8.53
2018-03-04T22:38:58.182Z,8.10
2018-03-04T22:41:27.426Z,9.10
2018-03-04T22:43:56.654Z,8.27
2018-03-04T22:46:25.698Z,8.67
2018-03-04T22:48:54.640Z,8.37
2018-03-04T22:51:23.670Z,8.13
2018-03-04T22:53:52.640Z,8.50
2018-03-04T22:56:21.679Z,7.87
2018-03-04T22:58:50.657Z,7.87
2018-03-04T23:01:19.682Z,7.50
2018-03-04T23:03:48.622Z,7.53
2018-03-04T23:06:17.623Z,7.77
2018-03-04T23:08:46.599Z,7.50
2018-03-04T23:11:15.623Z,7.37
2018-03-04T23:13:44.649Z,7.87
2018-03-04T23:16:13.623Z,8.30
2018-03-04T23:18:52.669Z,7.63
2018-03-04T23:21:21.635Z,8.40
2018-03-04T23:23:50.597Z,7.13
2018-03-04T23:26:19.669Z,7.30
2018-03-04T23:28:48.687Z,7.07
2018-03-04T23:31:17.636Z,7.53
2018-03-04T23:33:46.607Z,7.03
2018-03-04T23:36:15.623Z,6.90
2018-03-04T23:38:44.652Z,7.70
2018-03-04T23:41:14.439Z,7.13
2018-03-04T23:50:11.686Z,6.50
2018-03-04T23:52:40.751Z,7.30
2018-03-04T23:55:09.677Z,7.40
2018-03-04T23:57:38.648Z,6.87
